Terminal Aerodrome Forecast
Issued by NWS

Home | Current Version | Previous Version | Graphics & Text | Print | Product List | Glossary On
Versions: 1 2 3 4 5 6 7 8 9 10 11 12 13 14 15 16 17 18 19 20 21 22
066
FTUS43 KABR 262320
TAFPIR
TAF
KPIR 262320Z 2700/2724 10015KT P6SM -SHRA VCTS BKN090CB OVC200
     FM270200 07010KT P6SM VCTS BKN150CB
     FM270400 04006KT P6SM BKN200
     FM271200 02007KT P6SM BKN015
     FM271500 03009KT P6SM BKN025
     FM271700 03011KT P6SM BKN040=

USA.gov is the U.S. government's official web portal to all federal, state and local government web resources and services.